sensor_id;sensor_type;location;lat;lon;timestamp;pressure;altitude;pressure_sealevel;temperature;humidity
40155;BME280;25875;48.202;16.334;2022-09-21T17:53:09;99809.19;;;12.07;61.11
40155;BME280;25875;48.202;16.334;2022-09-21T17:55:56;99819.88;;;12.23;61.13
40155;BME280;25875;48.202;16.334;2022-09-21T17:58:36;99817.97;;;12.25;60.30
40155;BME280;25875;48.202;16.334;2022-09-21T18:01:06;99821.94;;;12.33;62.68
40155;BME280;25875;48.202;16.334;2022-09-21T18:03:38;99822.63;;;12.37;60.98
40155;BME280;25875;48.202;16.334;2022-09-21T18:06:08;99816.09;;;12.42;61.83
40155;BME280;25875;48.202;16.334;2022-09-21T18:08:38;99828.28;;;12.46;61.68
40155;BME280;25875;48.202;16.334;2022-09-21T18:11:14;99816.44;;;12.52;60.12
40155;BME280;25875;48.202;16.334;2022-09-21T18:13:53;99811.72;;;12.57;60.06
40155;BME280;25875;48.202;16.334;2022-09-21T18:16:33;99817.91;;;12.58;60.08
40155;BME280;25875;48.202;16.334;2022-09-21T18:19:20;99811.66;;;12.59;58.79
40155;BME280;25875;48.202;16.334;2022-09-21T18:21:51;99791.16;;;12.45;60.72
40155;BME280;25875;48.202;16.334;2022-09-21T18:24:25;99819.44;;;12.62;60.02
40155;BME280;25875;48.202;16.334;2022-09-21T18:26:53;99774.44;;;12.27;60.69
40155;BME280;25875;48.202;16.334;2022-09-21T18:29:25;99831.63;;;12.66;61.54
40155;BME280;25875;48.202;16.334;2022-09-21T18:32:08;99830.34;;;12.57;58.47
40155;BME280;25875;48.202;16.334;2022-09-21T18:34:56;99830.25;;;12.59;58.27
40155;BME280;25875;48.202;16.334;2022-09-21T18:37:32;99829.50;;;12.57;58.82
40155;BME280;25875;48.202;16.334;2022-09-21T18:40:12;99838.31;;;12.57;58.49
40155;BME280;25875;48.202;16.334;2022-09-21T18:42:51;99835.66;;;12.57;59.50
40155;BME280;25875;48.202;16.334;2022-09-21T18:45:23;99832.22;;;12.55;60.78
40155;BME280;25875;48.202;16.334;2022-09-21T18:48:07;99837.63;;;12.54;58.66
40155;BME280;25875;48.202;16.334;2022-09-21T18:50:44;99812.41;;;12.45;59.97
40155;BME280;25875;48.202;16.334;2022-09-21T18:53:19;99826.91;;;12.55;58.48
40155;BME280;25875;48.202;16.334;2022-09-21T18:55:51;99838.50;;;12.54;58.86
40155;BME280;25875;48.202;16.334;2022-09-21T18:58:18;99834.28;;;12.50;60.14
40155;BME280;25875;48.202;16.334;2022-09-21T19:00:46;99837.88;;;12.49;60.36
40155;BME280;25875;48.202;16.334;2022-09-21T19:03:15;99820.81;;;12.37;59.77
40155;BME280;25875;48.202;16.334;2022-09-21T19:05:49;99807.69;;;12.34;59.99
40155;BME280;25875;48.202;16.334;2022-09-21T19:08:24;99845.88;;;12.49;58.19
40155;BME280;25875;48.202;16.334;2022-09-21T19:11:03;99830.44;;;12.40;58.09
40155;BME280;25875;48.202;16.334;2022-09-21T19:13:42;99851.97;;;12.51;57.64
40155;BME280;25875;48.202;16.334;2022-09-21T19:16:20;99852.81;;;12.51;57.42
40155;BME280;25875;48.202;16.334;2022-09-21T19:18:57;99856.34;;;12.52;57.87
40155;BME280;25875;48.202;16.334;2022-09-21T19:21:33;99857.19;;;12.52;57.88
40155;BME280;25875;48.202;16.334;2022-09-21T19:24:09;99788.94;;;12.04;58.21
40155;BME280;25875;48.202;16.334;2022-09-21T19:26:47;99850.06;;;12.53;57.17
40155;BME280;25875;48.202;16.334;2022-09-21T19:29:35;99854.78;;;12.48;56.79
40155;BME280;25875;48.202;16.334;2022-09-21T19:32:14;99853.94;;;12.47;56.96
40155;BME280;25875;48.202;16.334;2022-09-21T19:34:42;99852.28;;;12.45;57.81
40155;BME280;25875;48.202;16.334;2022-09-21T19:37:09;99857.69;;;12.43;58.74
40155;BME280;25875;48.202;16.334;2022-09-21T19:39:37;99854.94;;;12.45;58.37
40155;BME280;25875;48.202;16.334;2022-09-21T19:42:16;99850.84;;;12.39;56.33
40155;BME280;25875;48.202;16.334;2022-09-21T19:44:55;99855.22;;;12.40;56.93
40155;BME280;25875;48.202;16.334;2022-09-21T19:47:28;99855.63;;;12.33;57.56
40155;BME280;25875;48.202;16.334;2022-09-21T19:50:01;99852.97;;;12.33;56.66
40155;BME280;25875;48.202;16.334;2022-09-21T19:52:34;99862.81;;;12.31;58.99
40155;BME280;25875;48.202;16.334;2022-09-21T19:55:03;99858.53;;;12.28;58.28
40155;BME280;25875;48.202;16.334;2022-09-21T19:57:50;99852.28;;;12.29;57.53
40155;BME280;25875;48.202;16.334;2022-09-21T20:00:36;99851.59;;;12.26;58.42
40155;BME280;25875;48.202;16.334;2022-09-21T20:03:05;99855.78;;;12.30;58.25
40155;BME280;25875;48.202;16.334;2022-09-21T20:05:43;99858.94;;;12.21;56.71
40155;BME280;25875;48.202;16.334;2022-09-21T20:08:17;99848.31;;;12.21;57.89
40155;BME280;25875;48.202;16.334;2022-09-21T20:11:09;99862.75;;;12.15;56.63
40155;BME280;25875;48.202;16.334;2022-09-21T20:13:49;99857.53;;;12.13;56.77
40155;BME280;25875;48.202;16.334;2022-09-21T20:16:27;99859.09;;;12.17;57.85
40155;BME280;25875;48.202;16.334;2022-09-21T20:19:00;99862.84;;;12.13;57.77
40155;BME280;25875;48.202;16.334;2022-09-21T20:21:36;99844.09;;;11.99;57.13
40155;BME280;25875;48.202;16.334;2022-09-21T20:24:18;99861.03;;;12.14;56.90
40155;BME280;25875;48.202;16.334;2022-09-21T20:26:48;99869.34;;;12.08;57.93
40155;BME280;25875;48.202;16.334;2022-09-21T20:29:19;99787.00;;;11.57;57.51
40155;BME280;25875;48.202;16.334;2022-09-21T20:31:48;99866.44;;;12.12;59.05
40155;BME280;25875;48.202;16.334;2022-09-21T20:34:17;99865.56;;;12.12;58.73
40155;BME280;25875;48.202;16.334;2022-09-21T20:36:45;99863.25;;;12.06;58.85
40155;BME280;25875;48.202;16.334;2022-09-21T20:39:12;99864.19;;;12.05;58.53
40155;BME280;25875;48.202;16.334;2022-09-21T20:41:39;99871.38;;;12.03;58.89
40155;BME280;25875;48.202;16.334;2022-09-21T20:44:09;99870.44;;;12.04;58.30
40155;BME280;25875;48.202;16.334;2022-09-21T20:46:39;99868.72;;;12.03;58.68
40155;BME280;25875;48.202;16.334;2022-09-21T20:49:06;99866.34;;;11.97;59.20
40155;BME280;25875;48.202;16.334;2022-09-21T20:51:34;99809.16;;;11.56;59.85
40155;BME280;25875;48.202;16.334;2022-09-21T20:54:01;99790.06;;;11.33;58.97
40155;BME280;25875;48.202;16.334;2022-09-21T20:56:29;99789.91;;;11.36;59.25
40155;BME280;25875;48.202;16.334;2022-09-21T20:58:56;99880.91;;;11.89;59.78
40155;BME280;25875;48.202;16.334;2022-09-21T21:01:24;99884.41;;;11.90;59.57
40155;BME280;25875;48.202;16.334;2022-09-21T21:03:55;99883.63;;;11.88;57.92
40155;BME280;25875;48.202;16.334;2022-09-21T21:06:26;99881.84;;;11.71;57.81
40155;BME280;25875;48.202;16.334;2022-09-21T21:08:53;99876.94;;;11.81;59.64
40155;BME280;25875;48.202;16.334;2022-09-21T21:11:20;99873.56;;;11.77;59.40
40155;BME280;25875;48.202;16.334;2022-09-21T21:13:48;99874.91;;;11.69;59.89
40155;BME280;25875;48.202;16.334;2022-09-21T21:16:15;99874.91;;;11.69;59.69
40155;BME280;25875;48.202;16.334;2022-09-21T21:18:42;99862.56;;;11.68;59.42
40155;BME280;25875;48.202;16.334;2022-09-21T21:21:10;99867.56;;;11.74;59.35
40155;BME280;25875;48.202;16.334;2022-09-21T21:23:38;99863.50;;;11.67;59.55
40155;BME280;25875;48.202;16.334;2022-09-21T21:26:19;99808.31;;;11.21;60.09
40155;BME280;25875;48.202;16.334;2022-09-21T21:28:46;99865.63;;;11.60;59.78
40155;BME280;25875;48.202;16.334;2022-09-21T21:31:14;99862.97;;;11.60;59.97
40155;BME280;25875;48.202;16.334;2022-09-21T21:33:41;99863.81;;;11.61;59.84
40155;BME280;25875;48.202;16.334;2022-09-21T21:36:09;99853.44;;;11.56;59.60
40155;BME280;25875;48.202;16.334;2022-09-21T21:38:41;99863.44;;;11.51;59.33
40155;BME280;25875;48.202;16.334;2022-09-21T21:41:09;99863.75;;;11.45;59.91
40155;BME280;25875;48.202;16.334;2022-09-21T21:43:39;99859.75;;;11.36;60.09
40155;BME280;25875;48.202;16.334;2022-09-21T21:46:08;99856.09;;;11.39;60.14
40155;BME280;25875;48.202;16.334;2022-09-21T21:48:36;99849.28;;;11.33;60.05
40155;BME280;25875;48.202;16.334;2022-09-21T21:51:05;99861.63;;;11.34;60.19
40155;BME280;25875;48.202;16.334;2022-09-21T21:53:34;99834.16;;;11.18;60.75
40155;BME280;25875;48.202;16.334;2022-09-21T21:56:05;99823.69;;;11.15;59.82
40155;BME280;25875;48.202;16.334;2022-09-21T21:58:33;99849.06;;;11.38;60.85
40155;BME280;25875;48.202;16.334;2022-09-21T22:01:07;99807.84;;;11.13;59.57
40155;BME280;25875;48.202;16.334;2022-09-21T22:03:35;99712.13;;;10.47;59.85
40155;BME280;25875;48.202;16.334;2022-09-21T22:06:03;99854.13;;;11.25;60.00
40155;BME280;25875;48.202;16.334;2022-09-21T22:08:31;99855.84;;;11.26;60.29
40155;BME280;25875;48.202;16.334;2022-09-21T22:10:58;99849.69;;;11.26;60.66
40155;BME280;25875;48.202;16.334;2022-09-21T22:13:27;99840.88;;;11.25;60.84
40155;BME280;25875;48.202;16.334;2022-09-21T22:16:01;99787.22;;;10.84;60.01
40155;BME280;25875;48.202;16.334;2022-09-21T22:18:30;99843.34;;;11.11;60.32
40155;BME280;25875;48.202;16.334;2022-09-21T22:21:00;99844.75;;;11.18;60.13
40155;BME280;25875;48.202;16.334;2022-09-21T22:23:28;99853.09;;;11.10;60.83
40155;BME280;25875;48.202;16.334;2022-09-21T22:26:04;99747.38;;;10.49;60.25
40155;BME280;25875;48.202;16.334;2022-09-21T22:28:33;99852.88;;;11.15;60.46
40155;BME280;25875;48.202;16.334;2022-09-21T22:31:02;99755.03;;;10.55;60.95
40155;BME280;25875;48.202;16.334;2022-09-21T22:33:30;99844.91;;;11.15;60.88
40155;BME280;25875;48.202;16.334;2022-09-21T22:36:02;99843.19;;;11.14;60.47
40155;BME280;25875;48.202;16.334;2022-09-21T22:38:29;99851.31;;;11.11;60.59
40155;BME280;25875;48.202;16.334;2022-09-21T22:41:01;99842.19;;;11.16;60.41
40155;BME280;25875;48.202;16.334;2022-09-21T22:43:29;99818.38;;;10.98;60.44
40155;BME280;25875;48.202;16.334;2022-09-21T22:45:58;99831.00;;;11.10;60.41
40155;BME280;25875;48.202;16.334;2022-09-21T22:48:26;99833.59;;;11.11;60.53
40155;BME280;25875;48.202;16.334;2022-09-21T22:50:54;99828.22;;;11.13;61.08
40155;BME280;25875;48.202;16.334;2022-09-21T22:53:22;99756.84;;;10.72;61.43
40155;BME280;25875;48.202;16.334;2022-09-21T22:56:00;99816.59;;;11.15;60.21
40155;BME280;25875;48.202;16.334;2022-09-21T22:58:27;99829.78;;;11.17;60.88
40155;BME280;25875;48.202;16.334;2022-09-21T23:01:06;99822.53;;;11.20;60.18
40155;BME280;25875;48.202;16.334;2022-09-21T23:03:34;99815.50;;;11.19;61.07
40155;BME280;25875;48.202;16.334;2022-09-21T23:06:02;99812.63;;;11.24;60.96
40155;BME280;25875;48.202;16.334;2022-09-21T23:08:30;99817.91;;;11.24;60.91
40155;BME280;25875;48.202;16.334;2022-09-21T23:11:05;99727.84;;;10.69;60.27
40155;BME280;25875;48.202;16.334;2022-09-21T23:13:32;99820.72;;;11.21;60.67
40155;BME280;25875;48.202;16.334;2022-09-21T23:16:02;99767.72;;;10.85;60.87
40155;BME280;25875;48.202;16.334;2022-09-21T23:18:29;99832.28;;;11.20;60.91
40155;BME280;25875;48.202;16.334;2022-09-21T23:20:58;99825.03;;;11.23;60.81
40155;BME280;25875;48.202;16.334;2022-09-21T23:23:26;99818.06;;;11.21;61.01
40155;BME280;25875;48.202;16.334;2022-09-21T23:26:01;99819.88;;;11.20;60.30
40155;BME280;25875;48.202;16.334;2022-09-21T23:28:28;99820.81;;;11.19;60.57
40155;BME280;25875;48.202;16.334;2022-09-21T23:30:57;99822.84;;;11.14;60.92
40155;BME280;25875;48.202;16.334;2022-09-21T23:33:31;99738.66;;;10.65;60.27
40155;BME280;25875;48.202;16.334;2022-09-21T23:35:58;99827.59;;;11.08;61.24
40155;BME280;25875;48.202;16.334;2022-09-21T23:38:26;99818.13;;;11.02;61.64
40155;BME280;25875;48.202;16.334;2022-09-21T23:41:00;99817.84;;;11.08;61.25
40155;BME280;25875;48.202;16.334;2022-09-21T23:43:28;99739.81;;;10.59;61.10
40155;BME280;25875;48.202;16.334;2022-09-21T23:45:55;99815.78;;;10.96;60.99
40155;BME280;25875;48.202;16.334;2022-09-21T23:48:22;99813.22;;;10.95;61.21
40155;BME280;25875;48.202;16.334;2022-09-21T23:50:52;99798.84;;;10.81;61.10
40155;BME280;25875;48.202;16.334;2022-09-21T23:53:20;99821.41;;;10.90;61.19
40155;BME280;25875;48.202;16.334;2022-09-21T23:55:47;99815.53;;;10.83;61.32
40155;BME280;25875;48.202;16.334;2022-09-21T23:58:15;99788.63;;;10.55;61.08
